Chancay, Peru
Current Conditions -  °F | °C
As of 7:00 AM on Tuesday 21 Oct 2014 (Local Time) from SPIM Reporting Station
Overcast Overcast  
Wind Chill: 63°   Ceiling: 1000
Heat Index: 63°   Visibility: 6mi
Dew Point: 59°   Wind: 5mph
Humidity: 88%   Direction: 230°SW
Pressure: 29.94"   Gusts: NA
Location:  11.56°S, 77.27°W
Report Text: SPIM 211200Z 23004KT 190V260 9999 OVC010 17/15 Q1014 NOSIG RMK PP000
Loading
Personal Weather Stations






























Interactive Weather Map
Tropical Storm Tracking
New forecast layout! Learn more

10-Day Weather Forecast

Advertisements
Track Severe Weather on mobile